joomla templates top joomla templates template joomla

King Air Abend

Notam

C3641/14 - CUSTOMS AVBL PPR, TEL 0049 9561 92098. 13 NOV 14:46 2014 UNTIL PERM. CREATED: 13 NOV 14:47 2014

Aerodrome Terminal Information Service (ATIS) Coburg

METAR
EDQC 241320Z AUTO 13005KT 030V270 CAVOK 27/18 Q1025=

METAR und TAF der Umgebung

[Quelle: ADDS]
METAR
EDDF 241320Z 09011KT 060V120 CAVOK 31/16 Q1022 NOSIG =
EDDN 241320Z 09005KT 020V160 CAVOK 28/13 Q1024 NOSIG =
EDDE 241320Z 08007KT 010V150 CAVOK 30/13 Q1024 NOSIG =
TAF
EDDF 241100Z 2412/2518 10008KT CAVOK BECMG 2417/2419 04005KT BECMG 2508/2510 11006KT =
EDDN 241100Z 2412/2512 11005KT CAVOK TEMPO 2418/2507 VRB03KT BECMG 2507/2509 12010KT =
EDDE 241100Z 2412/2512 09005KT CAVOK BECMG 2419/2421 18005KT BECMG 2507/2509 09006KT =
SR / SS: 04:21 / 18:17 UTC (EDQC 2016-08-24)

Verkehrslandeplatz Coburg Brandensteinsebene
Tower
Zur Brandensteinsebene
96450 Coburg

AeroClub Logo 200px

Aero Club Coburg e. V.
Postfach 11 09
96401 Coburg